Time;durP1;ratioP1;P1;durP2;ratioP2;P2;SDS_P1;SDS_P2;PMS_P1;PMS_P2;Temp;Humidity;BMP_temperature;BMP_pressure;BME280_temperature;BME280_humidity;BME280_pressure;Samples;Min_cycle;Max_cycle;Signal;HPM_P1;HPM_P2
2023/05/20 00:01:27;;;;;;;32.60;23.20;;;;;;;11.17;86.29;101155.54;134231;1301;23452;-72
2023/05/20 00:04:31;;;;;;;30.80;23.60;;;;;;;11.17;86.08;101158.42;134224;1298;22388;-72
2023/05/20 00:07:32;;;;;;;35.40;23.60;;;;;;;11.16;86.05;101157.13;134274;1298;22469;-72
2023/05/20 00:11:04;;;;;;;;;;;;;;;;;;;;;
2023/05/20 00:14:23;;;;;;;29.80;22.60;;;;;;;11.15;85.95;101159.52;134142;1298;22948;-72
2023/05/20 00:17:26;;;;;;;31.30;23.50;;;;;;;11.14;86.04;101154.93;134223;1298;22548;-71
2023/05/20 00:20:34;;;;;;;32.90;22.40;;;;;;;11.14;85.88;101154.60;134223;1297;22459;-71
2023/05/20 00:23:46;;;;;;;30.70;22.90;;;;;;;11.13;85.87;101156.86;134253;1298;22464;-71
2023/05/20 00:27:20;;;;;;;31.20;23.00;;;;;;;11.13;85.85;101158.65;134231;1294;22385;-72
2023/05/20 00:30:30;;;;;;;30.40;23.70;;;;;;;11.13;85.88;101161.48;134069;1297;22164;-71
2023/05/20 00:34:13;;;;;;;;;;;;;;;;;;;;;
2023/05/20 00:37:32;;;;;;;32.50;24.70;;;;;;;11.15;85.95;101160.54;134247;1298;23141;-72
2023/05/20 00:41:04;;;;;;;32.00;24.80;;;;;;;11.17;86.08;101161.08;134241;1305;22330;-71
2023/05/20 00:44:09;;;;;;;36.50;27.30;;;;;;;11.16;86.10;101160.46;134167;1301;22530;-72
2023/05/20 00:47:45;;;;;;;38.30;27.00;;;;;;;11.15;86.09;101158.96;134267;1297;22461;-72
2023/05/20 00:51:15;;;;;;;;;;;;;;;;;;;;;
2023/05/20 00:58:55;;;;;;;;;;;;;;;;;;;;;
2023/05/20 01:02:09;;;;;;;33.30;24.20;;;;;;;11.09;86.45;101153.20;134157;1297;22377;-72
2023/05/20 01:05:44;;;;;;;;;;;;;;;;;;;;;
2023/05/20 01:09:12;;;;;;;29.30;21.90;;;;;;;11.05;86.51;101159.38;134163;1298;22273;-71
2023/05/20 01:13:21;;;;;;;29.60;21.20;;;;;;;11.02;86.65;101159.84;134214;1298;22232;-72
2023/05/20 01:17:08;;;;;;;31.70;23.30;;;;;;;10.97;86.62;101156.59;133988;1298;22441;-72
2023/05/20 01:20:33;;;;;;;33.20;23.30;;;;;;;10.94;86.79;101148.55;134091;1298;22504;-71
2023/05/20 01:23:44;;;;;;;35.20;24.10;;;;;;;10.92;86.77;101142.15;134223;1305;23123;-71
2023/05/20 01:27:02;;;;;;;;;;;;;;;;;;;;;
2023/05/20 01:30:21;;;;;;;28.90;20.60;;;;;;;10.91;86.71;101138.18;134223;1301;23157;-72
2023/05/20 01:33:54;;;;;;;;;;;;;;;;;;;;;
2023/05/20 01:37:29;;;;;;;;;;;;;;;;;;;;;
2023/05/20 01:41:23;;;;;;;32.00;23.60;;;;;;;10.92;86.95;101148.61;134228;1297;22447;-72
2023/05/20 01:44:27;;;;;;;30.80;21.20;;;;;;;10.91;87.11;101156.77;134068;1301;22432;-72
2023/05/20 01:47:34;;;;;;;27.20;21.10;;;;;;;10.91;86.82;101154.52;134205;1298;22440;-72
2023/05/20 01:51:07;;;;;;;32.60;20.70;;;;;;;10.91;86.90;101145.63;134195;1298;22300;-71
2023/05/20 01:54:53;;;;;;;;;;;;;;;;;;;;;
2023/05/20 01:58:34;;;;;;;;;;;;;;;;;;;;;
2023/05/20 02:02:24;;;;;;;28.40;21.40;;;;;;;10.91;86.99;101139.48;134194;1298;22426;-72
2023/05/20 02:09:30;;;;;;;31.30;22.40;;;;;;;10.89;87.12;101139.62;134085;1298;22417;-71
2023/05/20 02:12:51;;;;;;;32.80;22.10;;;;;;;10.88;87.18;101143.05;134201;1305;22347;-71
2023/05/20 02:16:41;;;;;;;;;;;;;;;;;;;;;
2023/05/20 02:20:56;;;;;;;25.80;19.50;;;;;;;10.88;87.11;101148.73;134211;1298;22452;-72
2023/05/20 02:28:18;;;;;;;25.40;19.40;;;;;;;10.88;87.23;101147.56;134160;1298;22363;-72
2023/05/20 02:31:51;;;;;;;29.20;20.10;;;;;;;10.91;87.32;101144.78;134022;1297;22417;-72
2023/05/20 02:35:21;;;;;;;29.00;20.70;;;;;;;10.92;87.29;101141.85;134131;1298;22430;-72
2023/05/20 02:39:32;;;;;;;28.80;19.50;;;;;;;10.92;87.40;101143.43;134235;1298;22479;-71
2023/05/20 02:42:52;;;;;;;24.90;18.90;;;;;;;10.91;87.35;101142.10;134183;1298;22537;-72
2023/05/20 02:46:23;;;;;;;;;;;;;;;;;;;;;
2023/05/20 02:50:15;;;;;;;;;;;;;;;;;;;;;
2023/05/20 02:53:39;;;;;;;31.60;19.80;;;;;;;10.91;87.39;101140.48;133952;1298;22383;-72
2023/05/20 02:57:18;;;;;;;29.20;20.50;;;;;;;10.92;87.58;101142.04;134231;1298;22403;-72
2023/05/20 03:01:46;;;;;;;26.40;20.70;;;;;;;10.90;87.55;101135.09;134216;1298;23227;-72
2023/05/20 03:04:58;;;;;;;27.00;19.70;;;;;;;10.90;87.66;101137.18;134140;1298;23248;-72
2023/05/20 03:08:04;;;;;;;27.00;18.70;;;;;;;10.90;87.63;101133.66;134012;1298;22385;-72
2023/05/20 03:11:55;;;;;;;28.20;18.40;;;;;;;10.90;87.67;101133.66;134211;1298;22374;-72
2023/05/20 03:19:25;;;;;;;;;;;;;;;;;;;;;
2023/05/20 03:24:01;;;;;;;27.60;18.50;;;;;;;10.93;87.74;101141.34;134214;1298;23157;-72
2023/05/20 03:27:20;;;;;;;;;;;;;;;;;;;;;
2023/05/20 03:30:59;;;;;;;26.30;19.10;;;;;;;10.94;87.95;101140.92;134013;1298;22335;-72
2023/05/20 03:34:12;;;;;;;23.20;16.80;;;;;;;10.93;87.90;101137.65;134072;1299;22263;-72
2023/05/20 03:37:46;;;;;;;;;;;;;;;;;;;;;
2023/05/20 03:41:34;;;;;;;24.40;18.50;;;;;;;10.95;88.19;101141.59;134204;1298;22211;-72
2023/05/20 03:45:01;;;;;;;29.10;17.10;;;;;;;10.95;88.17;101144.23;134183;1298;22388;-72
2023/05/20 03:48:08;;;;;;;25.00;18.10;;;;;;;10.95;88.27;101145.75;134071;1298;22362;-72
2023/05/20 03:51:50;;;;;;;;;;;;;;;;;;;;;
2023/05/20 03:55:22;;;;;;;;;;;;;;;;;;;;;
2023/05/20 03:58:29;;;;;;;28.10;17.40;;;;;;;10.98;88.36;101147.45;134153;1289;22343;-73
2023/05/20 04:01:41;;;;;;;24.00;18.50;;;;;;;10.99;88.49;101146.83;134247;1297;23102;-72
2023/05/20 04:05:55;;;;;;;30.00;18.90;;;;;;;11.00;88.49;101151.18;134234;1297;22387;-72
2023/05/20 04:08:47;;;;;;;26.30;18.00;;;;;;;11.01;88.55;101157.29;134166;1298;22260;-72
2023/05/20 04:12:11;;;;;;;27.60;17.20;;;;;;;11.05;88.49;101163.84;134115;1298;22364;-72
2023/05/20 04:15:18;;;;;;;25.40;18.60;;;;;;;11.07;88.44;101164.84;134108;1305;22422;-72
2023/05/20 04:18:32;;;;;;;21.70;16.80;;;;;;;11.07;88.50;101159.58;134092;1298;23002;-72
2023/05/20 04:21:45;;;;;;;26.00;18.70;;;;;;;11.08;88.56;101162.98;134278;1298;22378;-72
2023/05/20 04:25:02;;;;;;;;;;;;;;;;;;;;;
2023/05/20 04:28:37;;;;;;;27.80;18.50;;;;;;;11.12;88.60;101163.52;134192;1299;22143;-72
2023/05/20 04:31:59;;;;;;;24.90;18.70;;;;;;;11.14;88.64;101160.80;134090;1298;22480;-72
2023/05/20 04:35:12;;;;;;;27.50;19.70;;;;;;;11.17;88.63;101163.41;134062;1299;23125;-72
2023/05/20 04:38:28;;;;;;;25.40;18.60;;;;;;;11.17;88.66;101163.94;134123;1297;23174;-71
2023/05/20 04:41:56;;;;;;;29.50;21.10;;;;;;;11.18;88.88;101161.36;134124;1298;22440;-72
2023/05/20 04:45:11;;;;;;;30.00;21.30;;;;;;;11.19;88.82;101161.18;134173;1297;22233;-72
2023/05/20 04:48:59;;;;;;;31.70;21.40;;;;;;;11.22;88.67;101154.94;134087;1298;22407;-72
2023/05/20 04:52:20;;;;;;;35.30;20.70;;;;;;;11.23;88.69;101152.34;134172;1298;22367;-72
2023/05/20 04:55:32;;;;;;;29.10;20.40;;;;;;;11.27;88.68;101155.20;134216;1298;22478;-72
2023/05/20 04:58:34;;;;;;;30.90;22.70;;;;;;;11.30;88.74;101157.91;134091;1298;23026;-72
2023/05/20 05:01:46;;;;;;;32.70;23.20;;;;;;;11.31;88.86;101164.86;134228;1298;22235;-72
2023/05/20 05:05:20;;;;;;;35.90;23.00;;;;;;;11.32;88.62;101164.80;134196;1299;22894;-72
2023/05/20 05:08:36;;;;;;;38.40;26.70;;;;;;;11.34;88.67;101162.84;134077;1298;23032;-72
2023/05/20 05:12:06;;;;;;;38.60;26.00;;;;;;;11.36;88.56;101163.36;134082;1289;22236;-72
2023/05/20 05:15:29;;;;;;;;;;;;;;;;;;;;;
2023/05/20 05:19:16;;;;;;;;;;;;;;;;;;;;;
2023/05/20 05:26:41;;;;;;;36.80;25.10;;;;;;;11.34;88.24;101157.00;134011;1297;22512;-73
2023/05/20 05:30:36;;;;;;;;;;;;;;;;;;;;;
2023/05/20 05:34:18;;;;;;;;;;;;;;;;;;;;;
2023/05/20 05:38:00;;;;;;;37.70;24.70;;;;;;;11.33;88.15;101159.05;134181;1298;22477;-72
2023/05/20 05:42:06;;;;;;;;;;;;;;;;;;;;;
2023/05/20 05:45:31;;;;;;;38.50;27.10;;;;;;;11.32;88.16;101163.88;134067;1298;22374;-72
2023/05/20 05:49:28;;;;;;;;;;;;;;;;;;;;;
2023/05/20 05:53:17;;;;;;;35.80;24.30;;;;;;;11.33;88.30;101167.35;133922;1298;23172;-74
2023/05/20 05:57:14;;;;;;;;;;;;;;;;;;;;;
2023/05/20 06:09:49;;;;;;;27.70;20.80;;;;;;;11.43;87.65;101172.94;133997;1297;23261;-76
2023/05/20 06:13:51;;;;;;;27.70;20.00;;;;;;;11.44;87.35;101178.32;133863;1297;22420;-76
2023/05/20 06:16:57;;;;;;;27.60;19.90;;;;;;;11.45;87.29;101179.64;133965;1298;22442;-76
2023/05/20 06:20:59;;;;;;;28.00;20.00;;;;;;;11.50;87.45;101175.80;134110;1298;22366;-76
2023/05/20 06:24:18;;;;;;;26.80;18.00;;;;;;;11.55;87.25;101178.69;133873;1298;22222;-75
2023/05/20 06:27:59;;;;;;;26.30;18.10;;;;;;;11.58;87.07;101183.88;133933;1299;22363;-76
2023/05/20 06:31:48;;;;;;;19.50;15.50;;;;;;;11.60;86.95;101188.30;134215;1297;23305;-76
2023/05/20 06:35:15;;;;;;;22.10;15.50;;;;;;;11.60;86.93;101182.45;134009;1298;22370;-76
2023/05/20 06:39:15;;;;;;;;;;;;;;;;;;;;;
2023/05/20 06:42:50;;;;;;;21.30;15.40;;;;;;;11.58;86.81;101175.05;134016;1298;22476;-76
2023/05/20 06:50:29;;;;;;;21.30;16.00;;;;;;;11.64;86.77;101181.52;134210;1298;22466;-76
2023/05/20 06:54:09;;;;;;;;;;;;;;;;;;;;;
2023/05/20 06:58:48;;;;;;;19.00;13.30;;;;;;;11.70;86.50;101179.43;134215;1298;22333;-76
2023/05/20 07:06:00;;;;;;;;;;;;;;;;;;;;;
2023/05/20 07:18:50;;;;;;;;;;;;;;;;;;;;;
2023/05/20 07:23:02;;;;;;;19.70;14.50;;;;;;;11.93;86.60;101174.90;134081;1298;22890;-76
2023/05/20 07:26:35;;;;;;;;;;;;;;;;;;;;;
2023/05/20 07:30:48;;;;;;;;;;;;;;;;;;;;;
2023/05/20 07:34:27;;;;;;;20.60;16.00;;;;;;;12.05;86.21;101171.71;134086;1298;22447;-74
2023/05/20 07:37:28;;;;;;;22.50;16.60;;;;;;;12.12;86.45;101168.39;134120;1298;22341;-73
2023/05/20 07:40:37;;;;;;;21.10;16.70;;;;;;;12.16;85.98;101172.61;134113;1298;22451;-74
2023/05/20 07:44:20;;;;;;;21.20;15.80;;;;;;;12.23;86.20;101170.21;134245;1297;22980;-73
2023/05/20 07:48:13;;;;;;;20.90;16.50;;;;;;;12.32;86.02;101159.88;134236;1297;22494;-73
2023/05/20 07:55:56;;;;;;;19.30;14.60;;;;;;;12.52;84.98;101150.61;129766;1298;22362;-75
2023/05/20 07:59:45;;;;;;;18.30;14.70;;;;;;;12.59;85.41;101153.77;134263;1297;22433;-76
2023/05/20 08:02:56;;;;;;;19.20;14.40;;;;;;;12.73;85.16;101158.80;134199;1297;22432;-75
2023/05/20 08:06:21;;;;;;;;;;;;;;;;;;;;;
2023/05/20 08:10:24;;;;;;;17.00;13.90;;;;;;;12.75;84.34;101153.61;134226;1297;22495;-75
2023/05/20 08:14:26;;;;;;;;;;;;;;;;;;;;;
2023/05/20 08:18:09;;;;;;;16.00;13.60;;;;;;;12.89;84.13;101136.52;134078;1297;22366;-75
2023/05/20 08:21:54;;;;;;;;;;;;;;;;;;;;;
2023/05/20 08:26:40;;;;;;;17.90;14.10;;;;;;;13.08;84.11;101137.11;134220;1297;22441;-75
2023/05/20 08:30:02;;;;;;;19.20;14.20;;;;;;;13.17;83.62;101128.72;133972;1297;22920;-75
2023/05/20 08:33:54;;;;;;;;;;;;;;;;;;;;;
2023/05/20 08:38:13;;;;;;;17.70;14.90;;;;;;;13.50;83.30;101123.14;134037;1297;22596;-75
2023/05/20 08:42:23;;;;;;;17.70;13.60;;;;;;;13.60;83.00;101121.43;133869;1297;23122;-76
2023/05/20 08:45:27;;;;;;;;;;;;;;;;;;;;;
2023/05/20 08:49:18;;;;;;;;;;;;;;;;;;;;;
2023/05/20 08:53:35;;;;;;;17.20;13.20;;;;;;;13.89;81.97;101111.53;134004;1298;22396;-75
2023/05/20 08:57:32;;;;;;;;;;;;;;;;;;;;;
2023/05/20 09:00:53;;;;;;;16.10;13.10;;;;;;;14.25;80.73;101098.30;134136;1297;22173;-76
2023/05/20 09:04:42;;;;;;;;;;;;;;;;;;;;;
2023/05/20 09:12:11;;;;;;;16.80;12.40;;;;;;;14.52;80.10;101107.80;134037;1297;22189;-75
2023/05/20 09:24:58;;;;;;;15.90;12.80;;;;;;;14.30;80.02;101118.30;134004;1297;22416;-75
2023/05/20 09:32:39;;;;;;;15.80;12.30;;;;;;;14.27;79.96;101113.90;134105;1297;22384;-75
2023/05/20 09:40:59;;;;;;;;;;;;;;;;;;;;;
2023/05/20 09:58:16;;;;;;;;;;;;;;;;;;;;;
2023/05/20 10:01:41;;;;;;;;;;;;;;;14.81;79.40;101081.97;134317;1297;22483;-75
2023/05/20 10:10:19;;;;;;;15.70;12.40;;;;;;;14.86;78.67;101087.50;133617;1297;22364;-76
2023/05/20 10:22:34;;;;;;;14.30;11.90;;;;;;;14.95;78.84;101083.55;134180;1298;22246;-76
2023/05/20 10:25:53;;;;;;;14.50;11.80;;;;;;;15.01;78.46;101081.84;134261;1297;23140;-76
2023/05/20 10:30:40;;;;;;;;;;;;;;;;;;;;;
2023/05/20 10:35:11;;;;;;;18.10;13.70;;;;;;;15.17;78.16;101073.63;133283;1298;22396;-80
2023/05/20 10:38:58;;;;;;;;;;;;;;;;;;;;;
2023/05/20 10:43:30;;;;;;;;;;;;;;;;;;;;;
2023/05/20 10:47:36;;;;;;;;;;;;;;;;;;;;;
2023/05/20 10:51:34;;;;;;;;;;;;;;;;;;;;;
2023/05/20 10:59:16;;;;;;;21.10;15.70;;;;;;;15.20;77.57;101059.51;133544;1294;22545;-80
2023/05/20 11:02:46;;;;;;;16.80;13.00;;;;;;;15.24;77.83;101056.99;133707;1301;23105;-82
2023/05/20 11:11:13;;;;;;;20.70;13.70;;;;;;;15.40;77.27;101042.46;133571;1301;22405;-86
2023/05/20 11:19:19;;;;;;;;;;;;;;;;;;;;;
2023/05/20 11:23:25;;;;;;;;;;;;;;;;;;;;;
2023/05/20 11:27:36;;;;;;;;;;;;;;;;;;;;;
2023/05/20 11:32:08;;;;;;;19.90;15.00;;;;;;;15.74;76.98;101022.02;134242;1297;22404;-83
2023/05/20 11:40:45;;;;;;;20.70;15.40;;;;;;;15.83;76.37;101011.47;134066;1298;22916;-80
2023/05/20 11:45:06;;;;;;;22.10;14.70;;;;;;;15.84;76.11;101017.86;134009;1297;23476;-80
2023/05/20 11:48:52;;;;;;;;;;;;;;;;;;;;;
2023/05/20 11:52:34;;;;;;;16.70;13.90;;;;;;;15.87;76.16;101019.51;134235;1298;22232;-80
2023/05/20 11:57:45;;;;;;;19.30;14.20;;;;;;;15.94;76.52;101022.39;134141;1297;22375;-80
2023/05/20 12:00:46;;;;;;;18.60;14.60;;;;;;;16.01;76.24;101028.33;133555;1301;23357;-81
2023/05/20 12:05:15;;;;;;;18.20;13.50;;;;;;;16.04;75.88;101029.44;133792;1300;22984;-80
2023/05/20 12:09:07;;;;;;;20.60;14.70;;;;;;;16.00;76.07;101026.66;133615;1300;22371;-80
2023/05/20 12:17:07;;;;;;;;;;;;;;;;;;;;;
2023/05/20 12:20:43;;;;;;;20.00;15.10;;;;;;;15.96;75.53;101028.73;133618;1300;23139;-80
2023/05/20 12:25:03;;;;;;;24.00;16.60;;;;;;;16.02;75.20;101019.77;134008;1297;22429;-80
2023/05/20 12:29:14;;;;;;;21.00;16.50;;;;;;;16.09;75.39;101020.71;134049;1297;22266;-80
2023/05/20 12:32:53;;;;;;;;;;;;;;;;;;;;;
2023/05/20 12:36:40;;;;;;;;;;;;;;;;;;;;;
2023/05/20 12:41:06;;;;;;;;;;;;;;;;;;;;;
2023/05/20 12:45:05;;;;;;;;;;;;;;;;;;;;;
2023/05/20 12:49:44;;;;;;;22.20;17.20;;;;;;;16.68;73.95;100975.15;134245;1298;22359;-81
2023/05/20 12:53:55;;;;;;;25.60;18.20;;;;;;;16.75;73.64;100971.16;134044;1297;22146;-80
2023/05/20 13:05:46;;;;;;;25.70;19.70;;;;;;;17.23;73.32;100969.54;134129;1297;22560;-80
2023/05/20 13:10:30;;;;;;;24.60;19.50;;;;;;;17.25;72.82;100967.53;134230;1298;22419;-80
2023/05/20 13:14:02;;;;;;;22.10;17.40;;;;;;;17.34;73.27;100961.73;134157;1298;23097;-80
2023/05/20 13:22:51;;;;;;;23.80;19.40;;;;;;;17.53;72.17;100951.75;134014;1305;22372;-80
2023/05/20 13:31:05;;;;;;;;;;;;;;;;;;;;;
2023/05/20 13:34:57;;;;;;;;;;;;;;;;;;;;;
2023/05/20 13:38:56;;;;;;;;;;;;;;;;;;;;;
2023/05/20 13:42:23;;;;;;;;;;;;;;;;;;;;;
2023/05/20 13:50:40;;;;;;;;;;;;;;;;;;;;;
2023/05/20 13:59:26;;;;;;;30.60;20.30;;;;;;;18.39;70.23;100919.01;134007;1297;23598;-80
2023/05/20 14:11:04;;;;;;;22.60;18.90;;;;;;;18.22;70.27;100903.55;134136;1297;22492;-80
2023/05/20 14:15:29;;;;;;;;;;;;;;;;;;;;;
2023/05/20 14:19:37;;;;;;;;;;;;;;;;;;;;;
2023/05/20 14:23:32;;;;;;;25.50;20.10;;;;;;;18.14;70.05;100887.42;134086;1297;22339;-80
2023/05/20 14:40:42;;;;;;;25.90;19.10;;;;;;;18.74;69.59;100866.34;134046;1297;22226;-80
2023/05/20 14:57:37;;;;;;;;;;;;;;;;;;;;;
2023/05/20 15:01:58;;;;;;;28.00;21.90;;;;;;;18.80;69.61;100847.80;134216;1297;22388;-81
2023/05/20 15:09:21;;;;;;;25.60;20.80;;;;;;;19.04;69.33;100837.70;134072;1297;24351;-81
2023/05/20 15:13:16;;;;;;;;;;;;;;;;;;;;;
2023/05/20 15:18:00;;;;;;;29.20;22.90;;;;;;;18.99;69.10;100830.66;134136;1298;22180;-82
2023/05/20 15:21:17;;;;;;;;;;;;;;;;;;;;;
2023/05/20 15:26:00;;;;;;;25.50;21.30;;;;;;;19.02;69.71;100818.71;134144;1297;22382;-80
2023/05/20 15:30:03;;;;;;;24.70;19.00;;;;;;;19.09;69.66;100808.13;134188;1297;23073;-81
2023/05/20 15:33:34;;;;;;;;;;;;;;;;;;;;;
2023/05/20 15:37:25;;;;;;;;;;;;;;;;;;;;;
2023/05/20 15:41:23;;;;;;;;;;;;;;;;;;;;;
2023/05/20 15:45:48;;;;;;;;;;;;;;;;;;;;;
2023/05/20 15:50:12;;;;;;;;;;;;;;;;;;;;;
2023/05/20 15:53:45;;;;;;;22.70;20.20;;;;;;;19.28;69.52;100780.56;133410;1303;22364;-81
2023/05/20 15:57:28;;;;;;;;;;;;;;;;;;;;;
2023/05/20 16:06:04;;;;;;;;;;;;;;;19.46;69.20;100772.69;133311;1303;22474;-81
2023/05/20 16:17:27;;;;;;;;;;;;;;;;;;;;;
2023/05/20 16:21:59;;;;;;;;;;;;;;;;;;;;;
2023/05/20 16:26:13;;;;;;;24.00;19.80;;;;;;;19.58;68.77;100755.44;133407;1302;22539;-81
2023/05/20 16:34:16;;;;;;;;;;;;;;;;;;;;;
2023/05/20 16:42:57;;;;;;;24.10;19.80;;;;;;;19.65;69.21;100740.26;133449;1303;22208;-83
2023/05/20 16:46:49;;;;;;;;;;;;;;;;;;;;;
2023/05/20 16:50:50;;;;;;;;;;;;;;;;;;;;;
2023/05/20 16:55:01;;;;;;;;;;;;;;;;;;;;;
2023/05/20 17:06:55;;;;;;;23.50;20.70;;;;;;;19.55;69.64;100732.86;133327;1303;23316;-79
2023/05/20 17:10:07;;;;;;;29.50;19.80;;;;;;;19.51;69.81;100732.92;133411;1291;22383;-78
2023/05/20 17:22:36;;;;;;;26.20;20.10;;;;;;;19.33;70.22;100737.18;133472;1303;22137;-79
2023/05/20 17:30:31;;;;;;;;;;;;;;;;;;;;;
2023/05/20 18:12:25;;;;;;;;;;;;;;;;;;;;;
2023/05/20 18:16:32;;;;;;;75.80;51.00;;;;;;;18.16;73.30;100720.47;134196;1298;23329;-79
2023/05/20 18:24:19;;;;;;;;;;;;;;;;;;;;;
2023/05/20 18:28:11;;;;;;;;;;;;;;;;;;;;;
2023/05/20 18:41:04;;;;;;;;;;;;;;;;;;;;;
2023/05/20 18:45:40;;;;;;;31.80;25.60;;;;;;;17.34;75.13;100724.16;134094;1298;22423;-79
2023/05/20 18:53:07;;;;;;;37.50;27.80;;;;;;;16.92;75.73;100724.30;134140;1298;22370;-79
2023/05/20 18:56:49;;;;;;;;;;;;;;;;;;;;;
2023/05/20 19:00:56;;;;;;;;;;;;;;;;;;;;;
2023/05/20 19:08:53;;;;;;;;;;;;;;;;;;;;;
2023/05/20 19:12:57;;;;;;;49.10;38.00;;;;;;;15.93;77.92;100718.44;134193;1297;22403;-79
2023/05/20 19:21:50;;;;;;;;;;;;;;;;;;;;;
2023/05/20 19:26:24;;;;;;;44.60;34.00;;;;;;;15.64;79.32;100708.91;134181;1304;22341;-77
2023/05/20 19:30:08;;;;;;;46.10;36.30;;;;;;;15.52;79.95;100704.13;134129;1298;22857;-75
2023/05/20 19:34:05;;;;;;;47.10;35.40;;;;;;;15.45;80.57;100707.16;133979;1298;23544;-75
2023/05/20 19:41:53;;;;;;;46.90;34.30;;;;;;;15.41;81.21;100719.20;133882;1298;22262;-76
2023/05/20 19:46:07;;;;;;;;;;;;;;;;;;;;;
2023/05/20 19:50:30;;;;;;;50.50;37.70;;;;;;;15.37;81.72;100728.20;133940;1297;22356;-76
2023/05/20 19:59:03;;;;;;;44.30;35.70;;;;;;;15.18;82.16;100735.06;133992;1297;22264;-76
2023/05/20 20:02:58;;;;;;;;;;;;;;;;;;;;;
2023/05/20 20:11:27;;;;;;;43.80;35.30;;;;;;;15.00;82.83;100732.02;133971;1298;22220;-76
2023/05/20 20:15:30;;;;;;;;;;;;;;;;;;;;;
2023/05/20 20:18:51;;;;;;;49.40;37.00;;;;;;;14.96;83.56;100734.50;134197;1298;22417;-75
2023/05/20 20:21:56;;;;;;;50.50;37.30;;;;;;;14.94;83.73;100734.52;134125;1298;22384;-79
2023/05/20 20:25:02;;;;;;;47.10;35.70;;;;;;;14.93;83.80;100743.08;133786;1299;22360;-75
2023/05/20 20:28:34;;;;;;;48.70;35.80;;;;;;;14.92;83.99;100741.45;134219;1298;23098;-75
2023/05/20 20:31:43;;;;;;;52.70;38.70;;;;;;;14.90;84.19;100738.96;133618;1298;22948;-75
2023/05/20 20:34:56;;;;;;;47.70;37.50;;;;;;;14.87;84.20;100739.25;134069;1299;22352;-76
2023/05/20 20:38:09;;;;;;;52.70;38.20;;;;;;;14.85;84.28;100741.16;134106;1299;22383;-75
2023/05/20 20:41:14;;;;;;;48.90;36.90;;;;;;;14.81;84.33;100744.56;133900;1299;22378;-75
2023/05/20 20:44:25;;;;;;;49.90;38.40;;;;;;;14.78;84.51;100745.33;133943;1298;23177;-76
2023/05/20 20:47:36;;;;;;;;;;;;;;;14.78;84.82;100745.69;134239;1297;22457;-75
2023/05/20 20:51:10;;;;;;;;;;;;;;;;;;;;;
2023/05/20 20:54:13;;;;;;;52.90;38.00;;;;;;;14.76;84.99;100741.94;134140;1298;22366;-75
2023/05/20 20:57:25;;;;;;;55.40;38.50;;;;;;;14.75;85.02;100739.58;134120;1298;22381;-76
2023/05/20 21:00:29;;;;;;;51.00;38.60;;;;;;;14.72;85.16;100740.46;133955;1298;22222;-75
2023/05/20 21:03:39;;;;;;;50.40;39.20;;;;;;;14.67;85.35;100738.73;133900;1298;22447;-76
2023/05/20 21:06:48;;;;;;;48.20;38.20;;;;;;;14.66;85.66;100734.97;134214;1298;22227;-75
2023/05/20 21:10:18;;;;;;;49.70;38.60;;;;;;;14.65;85.70;100729.54;134084;1298;22466;-75
2023/05/20 21:13:42;;;;;;;51.00;37.70;;;;;;;14.64;85.88;100729.65;133611;1301;22305;-75
2023/05/20 21:16:51;;;;;;;52.70;39.30;;;;;;;14.63;85.99;100730.33;133489;1301;22413;-76
2023/05/20 21:20:01;;;;;;;59.30;42.30;;;;;;;14.61;86.21;100728.83;133333;1302;22279;-75
2023/05/20 21:23:05;;;;;;;48.20;38.70;;;;;;;14.60;86.31;100730.59;133455;1301;22545;-75
2023/05/20 21:26:06;;;;;;;56.70;40.40;;;;;;;14.59;86.39;100728.86;133298;1301;23071;-75
2023/05/20 21:29:10;;;;;;;50.90;38.60;;;;;;;14.59;86.50;100730.52;133374;1302;22478;-75
2023/05/20 21:32:20;;;;;;;45.40;37.40;;;;;;;14.58;86.51;100731.33;133220;1301;22479;-76
2023/05/20 21:35:21;;;;;;;46.80;36.50;;;;;;;14.55;86.47;100732.11;133406;1301;22387;-75
2023/05/20 21:38:25;;;;;;;44.40;36.00;;;;;;;14.54;86.43;100733.19;133684;1301;22313;-75
2023/05/20 21:41:39;;;;;;;45.50;31.60;;;;;;;14.53;86.54;100733.17;134233;1297;22431;-75
2023/05/20 21:44:55;;;;;;;41.60;32.40;;;;;;;14.51;86.46;100733.13;133960;1301;22370;-76
2023/05/20 21:48:10;;;;;;;40.10;31.60;;;;;;;14.46;86.13;100735.44;134138;1287;22248;-76
2023/05/20 21:51:13;;;;;;;35.30;29.50;;;;;;;14.40;85.89;100731.54;134226;1298;22400;-75
2023/05/20 21:54:14;;;;;;;38.60;30.00;;;;;;;14.36;85.97;100734.00;133777;1297;22796;-75
2023/05/20 21:57:15;;;;;;;40.00;31.10;;;;;;;14.31;85.93;100731.50;133951;1298;22425;-76
2023/05/20 22:00:39;;;;;;;40.00;31.10;;;;;;;14.26;85.89;100730.88;133764;1298;22388;-75
2023/05/20 22:17:48;;;;;;;41.00;30.70;;;;;;;14.06;87.10;100739.73;133977;1298;22375;-74
2023/05/20 22:25:43;;;;;;;;;;;;;;;;;;;;;
2023/05/20 22:30:32;;;;;;;34.20;26.90;;;;;;;13.99;87.00;100741.08;134001;1298;22819;-75
2023/05/20 22:34:25;;;;;;;33.40;26.60;;;;;;;13.93;86.87;100733.16;133888;1297;22961;-75
2023/05/20 22:37:55;;;;;;;;;;;;;;;;;;;;;
2023/05/20 22:41:35;;;;;;;32.50;26.60;;;;;;;13.78;87.07;100732.42;134264;1297;22361;-75
2023/05/20 22:45:05;;;;;;;32.80;28.30;;;;;;;13.76;87.32;100740.65;134087;1301;23173;-75
2023/05/20 22:48:08;;;;;;;32.50;26.80;;;;;;;13.73;87.20;100742.95;133888;1301;22412;-77
2023/05/20 22:51:33;;;;;;;40.30;28.70;;;;;;;13.68;87.36;100741.27;133895;1298;22393;-75
2023/05/20 22:54:40;;;;;;;35.00;27.70;;;;;;;13.60;87.44;100734.23;134081;1301;24738;-75
2023/05/20 22:59:06;;;;;;;37.80;29.20;;;;;;;13.49;87.69;100738.64;133841;1297;22541;-76
2023/05/20 23:10:53;;;;;;;32.20;26.90;;;;;;;13.21;88.21;100720.13;134067;1297;22915;-75
2023/05/20 23:14:25;;;;;;;;;;;;;;;;;;;;;
2023/05/20 23:22:19;;;;;;;;;;;;;;;;;;;;;
2023/05/20 23:31:10;;;;;;;;;;;;;;;;;;;;;
2023/05/20 23:40:07;;;;;;;26.80;18.00;;;;;;;13.40;88.18;100718.32;133998;1297;24790;-76
2023/05/20 23:43:55;;;;;;;;;;;;;;;;;;;;;
2023/05/20 23:48:14;;;;;;;;;;;;;;;;;;;;;
2023/05/20 23:52:27;;;;;;;;;;;;;;;;;;;;;
